PWSweather.com
Personal Weather Stations
Station Observations
KIDNAMPA57
Canyon County Idaho, Nampa, ID 83687

Canyon County IdahoNampa, ID 83687

Lat: 43.587235, Lon: -116.49831979999999

Elevation: 2615

Station Type: Davis Vantage Pro 2

www.rockinglweather.com

High Low Average
Temperature 37.3°F2.9°C 25.1°F-3.8°C 31.0°F-0.6°C
Dew Point 34.2°F1.2°C 23.1°F-4.9°C 28.5°F-1.9°C
Winds 9.0 mph 14.5 kmh Calm Calm 1.0 mph S1.6 kmh S
Wind Gusts 10.0 mph16.1 kmh -- 4.0 mph6.4 kmh
Humidity 94% 78% 90%
Pressure 29.85 in1010.8 mb 29.65 in1004.1 mb -
Precipitation 0.00 in0.0 mm - -
Hour Temp Dew Point Humidity Winds Wind Gusts Pressure Precip Precip Rate Daily Precip Total
12:00 AM 30.1°F-1.1°C 28.3°F-2.1°C 93% Calm Calm 4.0 mph6.4 kmh 29.85 in1010.8 mb 0.00 in0.0 mm 0.00 in0.0 mm 0.00 in0.0 mm
12:05 AM 30.1°F-1.1°C 28.3°F-2.1°C 93% 1.0 mph SE1.6 kmh SE 3.0 mph4.8 kmh 29.85 in1010.8 mb 0.00 in0.0 mm 0.00 in0.0 mm 0.00 in0.0 mm
12:10 AM 30.1°F-1.1°C 28.3°F-2.1°C 93% 2.0 mph SE3.2 kmh SE 4.0 mph6.4 kmh 29.84 in1010.5 mb 0.00 in0.0 mm 0.00 in0.0 mm 0.00 in0.0 mm
12:15 AM 30.1°F-1.1°C 28.3°F-2.1°C 93% 2.0 mph SE3.2 kmh SE 4.0 mph6.4 kmh 29.84 in1010.5 mb 0.00 in0.0 mm 0.00 in0.0 mm 0.00 in0.0 mm
12:20 AM 30.1°F-1.1°C 28.3°F-2.1°C 93% Calm Calm 5.0 mph8.0 kmh 29.84 in1010.5 mb 0.00 in0.0 mm 0.00 in0.0 mm 0.00 in0.0 mm
12:25 AM 30.1°F-1.1°C 28.3°F-2.1°C 93% 3.0 mph SE4.8 kmh SE 6.0 mph9.7 kmh 29.84 in1010.5 mb 0.00 in0.0 mm 0.00 in0.0 mm 0.00 in0.0 mm
12:30 AM 30.0°F-1.1°C 28.2°F-2.1°C 93% 1.0 mph SE1.6 kmh SE 6.0 mph9.7 kmh 29.83 in1010.2 mb 0.00 in0.0 mm 0.00 in0.0 mm 0.00 in0.0 mm
12:35 AM 30.1°F-1.1°C 28.3°F-2.1°C 93% 1.0 mph S1.6 kmh S 5.0 mph8.0 kmh 29.83 in1010.2 mb 0.00 in0.0 mm 0.00 in0.0 mm 0.00 in0.0 mm
12:40 AM 30.1°F-1.1°C 28.3°F-2.1°C 93% 5.0 mph SE8.0 kmh SE 6.0 mph9.7 kmh 29.83 in1010.2 mb 0.00 in0.0 mm 0.00 in0.0 mm 0.00 in0.0 mm
12:45 AM 30.1°F-1.1°C 28.3°F-2.1°C 93% 1.0 mph SE1.6 kmh SE 6.0 mph9.7 kmh 29.83 in1010.2 mb 0.00 in0.0 mm 0.00 in0.0 mm 0.00 in0.0 mm
12:50 AM 30.1°F-1.1°C 28.3°F-2.1°C 93% Calm Calm 4.0 mph6.4 kmh 29.83 in1010.2 mb 0.00 in0.0 mm 0.00 in0.0 mm 0.00 in0.0 mm
12:55 AM 30.1°F-1.1°C 28.3°F-2.1°C 93% Calm Calm 4.0 mph6.4 kmh 29.82 in1009.8 mb 0.00 in0.0 mm 0.00 in0.0 mm 0.00 in0.0 mm
01:00 AM 30.0°F-1.1°C 28.2°F-2.1°C 93% Calm Calm 4.0 mph6.4 kmh 29.82 in1009.8 mb 0.00 in0.0 mm 0.00 in0.0 mm 0.00 in0.0 mm
01:05 AM 30.0°F-1.1°C 28.2°F-2.1°C 93% Calm Calm 4.0 mph6.4 kmh 29.82 in1009.8 mb 0.00 in0.0 mm 0.00 in0.0 mm 0.00 in0.0 mm
01:10 AM 30.0°F-1.1°C 28.2°F-2.1°C 93% 5.0 mph E8.0 kmh E 5.0 mph8.0 kmh 29.82 in1009.8 mb 0.00 in0.0 mm 0.00 in0.0 mm 0.00 in0.0 mm
01:15 AM 30.0°F-1.1°C 28.2°F-2.1°C 93% Calm Calm 5.0 mph8.0 kmh 29.81 in1009.5 mb 0.00 in0.0 mm 0.00 in0.0 mm 0.00 in0.0 mm
01:20 AM 29.9°F-1.2°C 28.1°F-2.2°C 93% 1.0 mph ESE1.6 kmh ESE 4.0 mph6.4 kmh 29.81 in1009.5 mb 0.00 in0.0 mm 0.00 in0.0 mm 0.00 in0.0 mm
01:25 AM 29.9°F-1.2°C 28.1°F-2.2°C 93% 2.0 mph ESE3.2 kmh ESE 4.0 mph6.4 kmh 29.81 in1009.5 mb 0.00 in0.0 mm 0.00 in0.0 mm 0.00 in0.0 mm
01:30 AM 29.9°F-1.2°C 28.1°F-2.2°C 93% 1.0 mph SE1.6 kmh SE 4.0 mph6.4 kmh 29.81 in1009.5 mb 0.00 in0.0 mm 0.00 in0.0 mm 0.00 in0.0 mm
01:35 AM 29.9°F-1.2°C 28.1°F-2.2°C 93% Calm Calm 4.0 mph6.4 kmh 29.81 in1009.5 mb 0.00 in0.0 mm 0.00 in0.0 mm 0.00 in0.0 mm
01:40 AM 29.9°F-1.2°C 28.1°F-2.2°C 93% 4.0 mph ESE6.4 kmh ESE 7.0 mph11.3 kmh 29.81 in1009.5 mb 0.00 in0.0 mm 0.00 in0.0 mm 0.00 in0.0 mm
01:45 AM 29.9°F-1.2°C 28.1°F-2.2°C 93% 3.0 mph SE4.8 kmh SE 7.0 mph11.3 kmh 29.80 in1009.1 mb 0.00 in0.0 mm 0.00 in0.0 mm 0.00 in0.0 mm
01:50 AM 29.9°F-1.2°C 28.1°F-2.2°C 93% 1.0 mph SE1.6 kmh SE 5.0 mph8.0 kmh 29.80 in1009.1 mb 0.00 in0.0 mm 0.00 in0.0 mm 0.00 in0.0 mm
01:55 AM 29.9°F-1.2°C 28.1°F-2.2°C 93% 2.0 mph SSE3.2 kmh SSE 5.0 mph8.0 kmh 29.80 in1009.1 mb 0.00 in0.0 mm 0.00 in0.0 mm 0.00 in0.0 mm
02:00 AM 29.9°F-1.2°C 28.1°F-2.2°C 93% 2.0 mph SE3.2 kmh SE 6.0 mph9.7 kmh 29.80 in1009.1 mb 0.00 in0.0 mm 0.00 in0.0 mm 0.00 in0.0 mm
02:05 AM 29.9°F-1.2°C 28.1°F-2.2°C 93% 2.0 mph SE3.2 kmh SE 6.0 mph9.7 kmh 29.80 in1009.1 mb 0.00 in0.0 mm 0.00 in0.0 mm 0.00 in0.0 mm
02:10 AM 29.9°F-1.2°C 28.1°F-2.2°C 93% 5.0 mph SE8.0 kmh SE 6.0 mph9.7 kmh 29.80 in1009.1 mb 0.00 in0.0 mm 0.00 in0.0 mm 0.00 in0.0 mm
02:15 AM 29.9°F-1.2°C 28.1°F-2.2°C 93% 1.0 mph SE1.6 kmh SE 6.0 mph9.7 kmh 29.79 in1008.8 mb 0.00 in0.0 mm 0.00 in0.0 mm 0.00 in0.0 mm
02:20 AM 29.9°F-1.2°C 28.1°F-2.2°C 93% 2.0 mph SE3.2 kmh SE 4.0 mph6.4 kmh 29.79 in1008.8 mb 0.00 in0.0 mm 0.00 in0.0 mm 0.00 in0.0 mm
02:25 AM 29.9°F-1.2°C 28.1°F-2.2°C 93% 3.0 mph SE4.8 kmh SE 4.0 mph6.4 kmh 29.79 in1008.8 mb 0.00 in0.0 mm 0.00 in0.0 mm 0.00 in0.0 mm
02:30 AM 29.9°F-1.2°C 28.1°F-2.2°C 93% 4.0 mph SE6.4 kmh SE 4.0 mph6.4 kmh 29.79 in1008.8 mb 0.00 in0.0 mm 0.00 in0.0 mm 0.00 in0.0 mm
02:35 AM 29.9°F-1.2°C 28.1°F-2.2°C 93% 2.0 mph SE3.2 kmh SE 5.0 mph8.0 kmh 29.79 in1008.8 mb 0.00 in0.0 mm 0.00 in0.0 mm 0.00 in0.0 mm
02:40 AM 29.9°F-1.2°C 28.1°F-2.2°C 93% 1.0 mph SE1.6 kmh SE 5.0 mph8.0 kmh 29.79 in1008.8 mb 0.00 in0.0 mm 0.00 in0.0 mm 0.00 in0.0 mm
02:45 AM 29.9°F-1.2°C 28.1°F-2.2°C 93% 4.0 mph SE6.4 kmh SE 5.0 mph8.0 kmh 29.78 in1008.5 mb 0.00 in0.0 mm 0.00 in0.0 mm 0.00 in0.0 mm
02:50 AM 29.8°F-1.2°C 28.0°F-2.2°C 93% 3.0 mph SE4.8 kmh SE 4.0 mph6.4 kmh 29.78 in1008.5 mb 0.00 in0.0 mm 0.00 in0.0 mm 0.00 in0.0 mm
02:55 AM 29.8°F-1.2°C 28.0°F-2.2°C 93% 2.0 mph SE3.2 kmh SE 5.0 mph8.0 kmh 29.78 in1008.5 mb 0.00 in0.0 mm 0.00 in0.0 mm 0.00 in0.0 mm
03:00 AM 29.8°F-1.2°C 28.0°F-2.2°C 93% 3.0 mph SSE4.8 kmh SSE 5.0 mph8.0 kmh 29.78 in1008.5 mb 0.00 in0.0 mm 0.00 in0.0 mm 0.00 in0.0 mm
03:05 AM 29.8°F-1.2°C 28.0°F-2.2°C 93% 3.0 mph SE4.8 kmh SE 4.0 mph6.4 kmh 29.77 in1008.1 mb 0.00 in0.0 mm 0.00 in0.0 mm 0.00 in0.0 mm
03:10 AM 29.8°F-1.2°C 28.0°F-2.2°C 93% 3.0 mph SE4.8 kmh SE 4.0 mph6.4 kmh 29.77 in1008.1 mb 0.00 in0.0 mm 0.00 in0.0 mm 0.00 in0.0 mm
03:15 AM 29.8°F-1.2°C 28.0°F-2.2°C 93% 1.0 mph SE1.6 kmh SE 4.0 mph6.4 kmh 29.77 in1008.1 mb 0.00 in0.0 mm 0.00 in0.0 mm 0.00 in0.0 mm
03:20 AM 29.7°F-1.3°C 27.9°F-2.3°C 93% 2.0 mph SE3.2 kmh SE 3.0 mph4.8 kmh 29.77 in1008.1 mb 0.00 in0.0 mm 0.00 in0.0 mm 0.00 in0.0 mm
03:25 AM 29.7°F-1.3°C 27.9°F-2.3°C 93% Calm Calm 3.0 mph4.8 kmh 29.77 in1008.1 mb 0.00 in0.0 mm 0.00 in0.0 mm 0.00 in0.0 mm
03:30 AM 29.7°F-1.3°C 27.9°F-2.3°C 93% Calm Calm 3.0 mph4.8 kmh 29.76 in1007.8 mb 0.00 in0.0 mm 0.00 in0.0 mm 0.00 in0.0 mm
03:35 AM 29.7°F-1.3°C 27.9°F-2.3°C 93% 1.0 mph SE1.6 kmh SE 4.0 mph6.4 kmh 29.76 in1007.8 mb 0.00 in0.0 mm 0.00 in0.0 mm 0.00 in0.0 mm
03:40 AM 29.7°F-1.3°C 27.9°F-2.3°C 93% 3.0 mph SE4.8 kmh SE 4.0 mph6.4 kmh 29.76 in1007.8 mb 0.00 in0.0 mm 0.00 in0.0 mm 0.00 in0.0 mm
03:45 AM 29.7°F-1.3°C 27.9°F-2.3°C 93% Calm Calm 4.0 mph6.4 kmh 29.75 in1007.5 mb 0.00 in0.0 mm 0.00 in0.0 mm 0.00 in0.0 mm
03:50 AM 29.7°F-1.3°C 27.9°F-2.3°C 93% 1.0 mph SE1.6 kmh SE 2.0 mph3.2 kmh 29.75 in1007.5 mb 0.00 in0.0 mm 0.00 in0.0 mm 0.00 in0.0 mm
03:55 AM 29.7°F-1.3°C 27.9°F-2.3°C 93% 1.0 mph SE1.6 kmh SE 3.0 mph4.8 kmh 29.75 in1007.5 mb 0.00 in0.0 mm 0.00 in0.0 mm 0.00 in0.0 mm
04:00 AM 29.7°F-1.3°C 27.9°F-2.3°C 93% Calm Calm 3.0 mph4.8 kmh 29.75 in1007.5 mb 0.00 in0.0 mm 0.00 in0.0 mm 0.00 in0.0 mm
04:05 AM 29.6°F-1.3°C 27.8°F-2.3°C 93% 2.0 mph SE3.2 kmh SE 4.0 mph6.4 kmh 29.75 in1007.5 mb 0.00 in0.0 mm 0.00 in0.0 mm 0.00 in0.0 mm
04:10 AM 29.6°F-1.3°C 27.8°F-2.3°C 93% 1.0 mph SE1.6 kmh SE 4.0 mph6.4 kmh 29.74 in1007.1 mb 0.00 in0.0 mm 0.00 in0.0 mm 0.00 in0.0 mm
04:15 AM 29.6°F-1.3°C 27.8°F-2.3°C 93% 1.0 mph SE1.6 kmh SE 4.0 mph6.4 kmh 29.74 in1007.1 mb 0.00 in0.0 mm 0.00 in0.0 mm 0.00 in0.0 mm
04:20 AM 29.6°F-1.3°C 27.8°F-2.3°C 93% Calm Calm 3.0 mph4.8 kmh 29.74 in1007.1 mb 0.00 in0.0 mm 0.00 in0.0 mm 0.00 in0.0 mm
04:25 AM 29.6°F-1.3°C 27.8°F-2.3°C 93% Calm Calm 3.0 mph4.8 kmh 29.74 in1007.1 mb 0.00 in0.0 mm 0.00 in0.0 mm 0.00 in0.0 mm
04:30 AM 29.6°F-1.3°C 27.8°F-2.3°C 93% Calm Calm 3.0 mph4.8 kmh 29.74 in1007.1 mb 0.00 in0.0 mm 0.00 in0.0 mm 0.00 in0.0 mm
04:35 AM 29.6°F-1.3°C 27.8°F-2.3°C 93% 2.0 mph SE3.2 kmh SE 2.0 mph3.2 kmh 29.73 in1006.8 mb 0.00 in0.0 mm 0.00 in0.0 mm 0.00 in0.0 mm
04:40 AM 29.6°F-1.3°C 27.8°F-2.3°C 93% Calm Calm 4.0 mph6.4 kmh 29.73 in1006.8 mb 0.00 in0.0 mm 0.00 in0.0 mm 0.00 in0.0 mm
04:45 AM 29.6°F-1.3°C 28.1°F-2.2°C 94% 1.0 mph ESE1.6 kmh ESE 4.0 mph6.4 kmh 29.73 in1006.8 mb 0.00 in0.0 mm 0.00 in0.0 mm 0.00 in0.0 mm
04:50 AM 29.6°F-1.3°C 28.1°F-2.2°C 94% 3.0 mph E4.8 kmh E 3.0 mph4.8 kmh 29.72 in1006.4 mb 0.00 in0.0 mm 0.00 in0.0 mm 0.00 in0.0 mm
04:55 AM 29.6°F-1.3°C 28.1°F-2.2°C 94% 1.0 mph E1.6 kmh E 4.0 mph6.4 kmh 29.72 in1006.4 mb 0.00 in0.0 mm 0.00 in0.0 mm 0.00 in0.0 mm
05:00 AM 29.6°F-1.3°C 28.1°F-2.2°C 94% 2.0 mph E3.2 kmh E 4.0 mph6.4 kmh 29.72 in1006.4 mb 0.00 in0.0 mm 0.00 in0.0 mm 0.00 in0.0 mm
05:05 AM 29.6°F-1.3°C 28.1°F-2.2°C 94% 3.0 mph E4.8 kmh E 4.0 mph6.4 kmh 29.72 in1006.4 mb 0.00 in0.0 mm 0.00 in0.0 mm 0.00 in0.0 mm
05:10 AM 29.5°F-1.4°C 28.0°F-2.2°C 94% 2.0 mph E3.2 kmh E 4.0 mph6.4 kmh 29.72 in1006.4 mb 0.00 in0.0 mm 0.00 in0.0 mm 0.00 in0.0 mm
05:15 AM 29.5°F-1.4°C 28.0°F-2.2°C 94% 1.0 mph E1.6 kmh E 4.0 mph6.4 kmh 29.72 in1006.4 mb 0.00 in0.0 mm 0.00 in0.0 mm 0.00 in0.0 mm
05:20 AM 29.5°F-1.4°C 28.0°F-2.2°C 94% 1.0 mph E1.6 kmh E 4.0 mph6.4 kmh 29.72 in1006.4 mb 0.00 in0.0 mm 0.00 in0.0 mm 0.00 in0.0 mm
05:25 AM 29.5°F-1.4°C 27.7°F-2.4°C 93% 1.0 mph E1.6 kmh E 4.0 mph6.4 kmh 29.72 in1006.4 mb 0.00 in0.0 mm 0.00 in0.0 mm 0.00 in0.0 mm
05:30 AM 29.5°F-1.4°C 27.7°F-2.4°C 93% 2.0 mph E3.2 kmh E 4.0 mph6.4 kmh 29.71 in1006.1 mb 0.00 in0.0 mm 0.00 in0.0 mm 0.00 in0.0 mm
05:35 AM 29.6°F-1.3°C 27.8°F-2.3°C 93% 3.0 mph E4.8 kmh E 7.0 mph11.3 kmh 29.72 in1006.4 mb 0.00 in0.0 mm 0.00 in0.0 mm 0.00 in0.0 mm
05:40 AM 29.6°F-1.3°C 27.8°F-2.3°C 93% 3.0 mph ESE4.8 kmh ESE 7.0 mph11.3 kmh 29.72 in1006.4 mb 0.00 in0.0 mm 0.00 in0.0 mm 0.00 in0.0 mm
05:45 AM 29.6°F-1.3°C 27.8°F-2.3°C 93% 1.0 mph ESE1.6 kmh ESE 7.0 mph11.3 kmh 29.71 in1006.1 mb 0.00 in0.0 mm 0.00 in0.0 mm 0.00 in0.0 mm
05:50 AM 29.6°F-1.3°C 27.8°F-2.3°C 93% 3.0 mph ESE4.8 kmh ESE 4.0 mph6.4 kmh 29.71 in1006.1 mb 0.00 in0.0 mm 0.00 in0.0 mm 0.00 in0.0 mm
05:55 AM 29.6°F-1.3°C 27.8°F-2.3°C 93% 1.0 mph ESE1.6 kmh ESE 4.0 mph6.4 kmh 29.71 in1006.1 mb 0.00 in0.0 mm 0.00 in0.0 mm 0.00 in0.0 mm
06:00 AM 29.6°F-1.3°C 28.1°F-2.2°C 94% 2.0 mph E3.2 kmh E 4.0 mph6.4 kmh 29.71 in1006.1 mb 0.00 in0.0 mm 0.00 in0.0 mm 0.00 in0.0 mm
06:05 AM 29.6°F-1.3°C 28.1°F-2.2°C 94% 2.0 mph E3.2 kmh E 3.0 mph4.8 kmh 29.71 in1006.1 mb 0.00 in0.0 mm 0.00 in0.0 mm 0.00 in0.0 mm
06:10 AM 29.7°F-1.3°C 28.2°F-2.1°C 94% 1.0 mph E1.6 kmh E 4.0 mph6.4 kmh 29.71 in1006.1 mb 0.00 in0.0 mm 0.00 in0.0 mm 0.00 in0.0 mm
06:15 AM 29.7°F-1.3°C 28.2°F-2.1°C 94% Calm Calm 4.0 mph6.4 kmh 29.71 in1006.1 mb 0.01 in0.3 mm 0.12 in3.0 mm 0.01 in0.3 mm
06:20 AM 29.8°F-1.2°C 28.3°F-2.1°C 94% 1.0 mph SE1.6 kmh SE 3.0 mph4.8 kmh 29.71 in1006.1 mb 0.01 in0.3 mm 0.00 in0.0 mm 0.01 in0.3 mm
06:25 AM 29.8°F-1.2°C 28.3°F-2.1°C 94% 2.0 mph SE3.2 kmh SE 4.0 mph6.4 kmh 29.71 in1006.1 mb 0.01 in0.3 mm 0.00 in0.0 mm 0.01 in0.3 mm
06:30 AM 29.9°F-1.2°C 28.4°F-2.0°C 94% Calm Calm 4.0 mph6.4 kmh 29.70 in1005.8 mb 0.02 in0.5 mm 0.12 in3.0 mm 0.02 in0.5 mm
06:35 AM 29.9°F-1.2°C 28.4°F-2.0°C 94% 2.0 mph SE3.2 kmh SE 4.0 mph6.4 kmh 29.70 in1005.8 mb 0.02 in0.5 mm 0.00 in0.0 mm 0.02 in0.5 mm
06:40 AM 29.9°F-1.2°C 28.4°F-2.0°C 94% 3.0 mph SE4.8 kmh SE 5.0 mph8.0 kmh 29.70 in1005.8 mb 0.02 in0.5 mm 0.00 in0.0 mm 0.02 in0.5 mm
06:45 AM 29.9°F-1.2°C 28.4°F-2.0°C 94% 1.0 mph SE1.6 kmh SE 6.0 mph9.7 kmh 29.70 in1005.8 mb 0.02 in0.5 mm 0.00 in0.0 mm 0.02 in0.5 mm
06:50 AM 29.9°F-1.2°C 28.4°F-2.0°C 94% 1.0 mph SE1.6 kmh SE 5.0 mph8.0 kmh 29.70 in1005.8 mb 0.03 in0.8 mm 0.12 in3.0 mm 0.03 in0.8 mm
06:55 AM 29.8°F-1.2°C 28.3°F-2.1°C 94% 1.0 mph SE1.6 kmh SE 5.0 mph8.0 kmh 29.70 in1005.8 mb 0.03 in0.8 mm 0.00 in0.0 mm 0.03 in0.8 mm
07:00 AM 29.8°F-1.2°C 28.3°F-2.1°C 94% 4.0 mph SE6.4 kmh SE 5.0 mph8.0 kmh 29.70 in1005.8 mb 0.03 in0.8 mm 0.00 in0.0 mm 0.03 in0.8 mm
07:05 AM 29.8°F-1.2°C 28.3°F-2.1°C 94% 2.0 mph SE3.2 kmh SE 6.0 mph9.7 kmh 29.70 in1005.8 mb 0.03 in0.8 mm 0.00 in0.0 mm 0.03 in0.8 mm
07:10 AM 29.7°F-1.3°C 28.2°F-2.1°C 94% 6.0 mph SE9.7 kmh SE 6.0 mph9.7 kmh 29.70 in1005.8 mb 0.03 in0.8 mm 0.00 in0.0 mm 0.03 in0.8 mm
07:15 AM 29.7°F-1.3°C 28.2°F-2.1°C 94% 3.0 mph SE4.8 kmh SE 6.0 mph9.7 kmh 29.70 in1005.8 mb 0.03 in0.8 mm 0.00 in0.0 mm 0.03 in0.8 mm
07:20 AM 29.7°F-1.3°C 28.2°F-2.1°C 94% 3.0 mph SE4.8 kmh SE 4.0 mph6.4 kmh 29.70 in1005.8 mb 0.03 in0.8 mm 0.00 in0.0 mm 0.03 in0.8 mm
07:25 AM 29.7°F-1.3°C 28.2°F-2.1°C 94% 1.0 mph SE1.6 kmh SE 4.0 mph6.4 kmh 29.70 in1005.8 mb 0.03 in0.8 mm 0.00 in0.0 mm 0.03 in0.8 mm
07:30 AM 29.7°F-1.3°C 28.2°F-2.1°C 94% 2.0 mph ESE3.2 kmh ESE 7.0 mph11.3 kmh 29.70 in1005.8 mb 0.03 in0.8 mm 0.00 in0.0 mm 0.03 in0.8 mm
07:35 AM 29.7°F-1.3°C 28.2°F-2.1°C 94% 3.0 mph E4.8 kmh E 5.0 mph8.0 kmh 29.70 in1005.8 mb 0.02 in0.5 mm 0.00 in0.0 mm 0.03 in0.8 mm
07:40 AM 29.7°F-1.3°C 28.2°F-2.1°C 94% 3.0 mph SE4.8 kmh SE 6.0 mph9.7 kmh 29.70 in1005.8 mb 0.02 in0.5 mm 0.00 in0.0 mm 0.03 in0.8 mm
07:55 AM 29.8°F-1.2°C 28.3°F-2.1°C 94% Calm Calm 6.0 mph9.7 kmh 29.70 in1005.8 mb 0.02 in0.5 mm 0.00 in0.0 mm 0.03 in0.8 mm
08:00 AM 29.9°F-1.2°C 28.4°F-2.0°C 94% Calm Calm 6.0 mph9.7 kmh 29.70 in1005.8 mb 0.02 in0.5 mm 0.00 in0.0 mm 0.03 in0.8 mm
08:05 AM 29.9°F-1.2°C 28.4°F-2.0°C 94% 6.0 mph ESE9.7 kmh ESE 6.0 mph9.7 kmh 29.70 in1005.8 mb 0.01 in0.3 mm 0.00 in0.0 mm 0.03 in0.8 mm
08:10 AM 30.0°F-1.1°C 28.5°F-1.9°C 94% 2.0 mph SE3.2 kmh SE 8.0 mph12.9 kmh 29.70 in1005.8 mb 0.01 in0.3 mm 0.00 in0.0 mm 0.03 in0.8 mm
08:15 AM 30.1°F-1.1°C 28.6°F-1.9°C 94% 1.0 mph SE1.6 kmh SE 8.0 mph12.9 kmh 29.70 in1005.8 mb 0.01 in0.3 mm 0.00 in0.0 mm 0.03 in0.8 mm
08:20 AM 30.2°F-1.0°C 28.7°F-1.8°C 94% 5.0 mph SE8.0 kmh SE 7.0 mph11.3 kmh 29.70 in1005.8 mb 0.01 in0.3 mm 0.00 in0.0 mm 0.03 in0.8 mm
08:25 AM 30.3°F-0.9°C 28.8°F-1.8°C 94% 2.0 mph SSE3.2 kmh SSE 7.0 mph11.3 kmh 29.70 in1005.8 mb 0.01 in0.3 mm 0.00 in0.0 mm 0.03 in0.8 mm
08:30 AM 30.4°F-0.9°C 28.9°F-1.7°C 94% 4.0 mph SE6.4 kmh SE 7.0 mph11.3 kmh 29.70 in1005.8 mb 0.01 in0.3 mm 0.00 in0.0 mm 0.03 in0.8 mm
08:35 AM 30.5°F-0.8°C 29.0°F-1.7°C 94% 1.0 mph SE1.6 kmh SE 5.0 mph8.0 kmh 29.70 in1005.8 mb 0.00 in0.0 mm 0.00 in0.0 mm 0.03 in0.8 mm
08:40 AM 30.6°F-0.8°C 29.1°F-1.6°C 94% 1.0 mph SSE1.6 kmh SSE 6.0 mph9.7 kmh 29.70 in1005.8 mb 0.00 in0.0 mm 0.00 in0.0 mm 0.03 in0.8 mm
08:45 AM 30.8°F-0.7°C 29.3°F-1.5°C 94% 2.0 mph SE3.2 kmh SE 7.0 mph11.3 kmh 29.70 in1005.8 mb 0.01 in0.3 mm 0.12 in3.0 mm 0.04 in1.0 mm
08:50 AM 31.0°F-0.6°C 29.5°F-1.4°C 94% 4.0 mph ESE6.4 kmh ESE 8.0 mph12.9 kmh 29.70 in1005.8 mb 0.01 in0.3 mm 0.00 in0.0 mm 0.04 in1.0 mm
08:55 AM 31.1°F-0.5°C 29.6°F-1.3°C 94% 4.0 mph SE6.4 kmh SE 8.0 mph12.9 kmh 29.70 in1005.8 mb 0.01 in0.3 mm 0.00 in0.0 mm 0.04 in1.0 mm
09:00 AM 31.2°F-0.4°C 29.7°F-1.3°C 94% 3.0 mph SE4.8 kmh SE 8.0 mph12.9 kmh 29.70 in1005.8 mb 0.01 in0.3 mm 0.00 in0.0 mm 0.04 in1.0 mm
09:05 AM 31.2°F-0.4°C 29.7°F-1.3°C 94% 4.0 mph SE6.4 kmh SE 7.0 mph11.3 kmh 29.71 in1006.1 mb 0.01 in0.3 mm 0.00 in0.0 mm 0.04 in1.0 mm
09:10 AM 31.2°F-0.4°C 29.7°F-1.3°C 94% 1.0 mph SE1.6 kmh SE 7.0 mph11.3 kmh 29.70 in1005.8 mb 0.01 in0.3 mm 0.00 in0.0 mm 0.04 in1.0 mm
09:15 AM 31.1°F-0.5°C 29.6°F-1.3°C 94% 2.0 mph SE3.2 kmh SE 7.0 mph11.3 kmh 29.71 in1006.1 mb 0.01 in0.3 mm 0.00 in0.0 mm 0.04 in1.0 mm
09:20 AM 31.1°F-0.5°C 29.3°F-1.5°C 93% 1.0 mph SE1.6 kmh SE 4.0 mph6.4 kmh 29.71 in1006.1 mb 0.01 in0.3 mm 0.00 in0.0 mm 0.04 in1.0 mm
09:25 AM 31.1°F-0.5°C 29.3°F-1.5°C 93% 2.0 mph SE3.2 kmh SE 5.0 mph8.0 kmh 29.71 in1006.1 mb 0.02 in0.5 mm 0.12 in3.0 mm 0.05 in1.3 mm
09:30 AM 31.2°F-0.4°C 29.7°F-1.3°C 94% 4.0 mph SE6.4 kmh SE 6.0 mph9.7 kmh 29.71 in1006.1 mb 0.02 in0.5 mm 0.00 in0.0 mm 0.05 in1.3 mm
09:35 AM 31.3°F-0.4°C 29.8°F-1.2°C 94% 2.0 mph SE3.2 kmh SE 4.0 mph6.4 kmh 29.71 in1006.1 mb 0.02 in0.5 mm 0.00 in0.0 mm 0.05 in1.3 mm
09:40 AM 31.5°F-0.3°C 29.7°F-1.3°C 93% 2.0 mph SSE3.2 kmh SSE 5.0 mph8.0 kmh 29.71 in1006.1 mb 0.02 in0.5 mm 0.00 in0.0 mm 0.05 in1.3 mm
09:45 AM 31.7°F-0.2°C 29.9°F-1.2°C 93% 3.0 mph S4.8 kmh S 5.0 mph8.0 kmh 29.71 in1006.1 mb 0.03 in0.8 mm 0.12 in3.0 mm 0.06 in1.5 mm
09:50 AM 31.8°F-0.1°C 30.0°F-1.1°C 93% 3.0 mph S4.8 kmh S 5.0 mph8.0 kmh 29.71 in1006.1 mb 0.03 in0.8 mm 0.00 in0.0 mm 0.06 in1.5 mm
09:55 AM 31.8°F-0.1°C 30.0°F-1.1°C 93% 2.0 mph SE3.2 kmh SE 5.0 mph8.0 kmh 29.71 in1006.1 mb 0.03 in0.8 mm 0.00 in0.0 mm 0.06 in1.5 mm
10:00 AM 31.8°F-0.1°C 30.0°F-1.1°C 93% 1.0 mph SE1.6 kmh SE 5.0 mph8.0 kmh 29.71 in1006.1 mb 0.03 in0.8 mm 0.00 in0.0 mm 0.06 in1.5 mm
10:05 AM 31.8°F-0.1°C 30.0°F-1.1°C 93% 3.0 mph S4.8 kmh S 5.0 mph8.0 kmh 29.71 in1006.1 mb 0.03 in0.8 mm 0.00 in0.0 mm 0.06 in1.5 mm
10:10 AM 31.8°F-0.1°C 30.0°F-1.1°C 93% 4.0 mph S6.4 kmh S 5.0 mph8.0 kmh 29.71 in1006.1 mb 0.03 in0.8 mm 0.00 in0.0 mm 0.06 in1.5 mm
10:15 AM 31.8°F-0.1°C 30.0°F-1.1°C 93% 5.0 mph SSE8.0 kmh SSE 5.0 mph8.0 kmh 29.71 in1006.1 mb 0.03 in0.8 mm 0.00 in0.0 mm 0.06 in1.5 mm
10:20 AM 32.6°F0.3°C 30.8°F-0.7°C 93% 2.0 mph SSE3.2 kmh SSE 5.0 mph8.0 kmh 29.70 in1005.8 mb 0.04 in1.0 mm 0.12 in3.0 mm 0.07 in1.8 mm
10:25 AM 32.6°F0.3°C 30.8°F-0.7°C 93% 3.0 mph SE4.8 kmh SE 5.0 mph8.0 kmh 29.70 in1005.8 mb 0.04 in1.0 mm 0.00 in0.0 mm 0.07 in1.8 mm
10:30 AM 32.9°F0.5°C 31.1°F-0.5°C 93% 3.0 mph SE4.8 kmh SE 5.0 mph8.0 kmh 29.70 in1005.8 mb 0.04 in1.0 mm 0.00 in0.0 mm 0.07 in1.8 mm
10:35 AM 33.2°F0.7°C 31.4°F-0.3°C 93% Calm Calm 3.0 mph4.8 kmh 29.70 in1005.8 mb 0.03 in0.8 mm 0.00 in0.0 mm 0.07 in1.8 mm
10:40 AM 33.5°F0.8°C 31.7°F-0.2°C 93% 2.0 mph S3.2 kmh S 4.0 mph6.4 kmh 29.70 in1005.8 mb 0.04 in1.0 mm 0.12 in3.0 mm 0.08 in2.0 mm
10:45 AM 33.8°F1.0°C 31.7°F-0.2°C 92% 2.0 mph SSE3.2 kmh SSE 5.0 mph8.0 kmh 29.70 in1005.8 mb 0.04 in1.0 mm 0.00 in0.0 mm 0.08 in2.0 mm
10:50 AM 34.2°F1.2°C 32.1°F0.1°C 92% 1.0 mph SE1.6 kmh SE 5.0 mph8.0 kmh 29.70 in1005.8 mb 0.03 in0.8 mm 0.00 in0.0 mm 0.08 in2.0 mm
10:55 AM 34.5°F1.4°C 32.4°F0.2°C 92% 2.0 mph SE3.2 kmh SE 5.0 mph8.0 kmh 29.70 in1005.8 mb 0.03 in0.8 mm 0.00 in0.0 mm 0.08 in2.0 mm
11:00 AM 34.7°F1.5°C 32.4°F0.2°C 91% 5.0 mph SE8.0 kmh SE 7.0 mph11.3 kmh 29.70 in1005.8 mb 0.03 in0.8 mm 0.00 in0.0 mm 0.08 in2.0 mm
11:05 AM 34.7°F1.5°C 32.4°F0.2°C 91% 3.0 mph SE4.8 kmh SE 6.0 mph9.7 kmh 29.70 in1005.8 mb 0.02 in0.5 mm 0.00 in0.0 mm 0.08 in2.0 mm
11:10 AM 35.0°F1.7°C 32.6°F0.3°C 91% Calm Calm 6.0 mph9.7 kmh 29.70 in1005.8 mb 0.02 in0.5 mm 0.00 in0.0 mm 0.08 in2.0 mm
11:15 AM 35.5°F1.9°C 33.1°F0.6°C 91% 3.0 mph SE4.8 kmh SE 6.0 mph9.7 kmh 29.70 in1005.8 mb 0.02 in0.5 mm 0.00 in0.0 mm 0.08 in2.0 mm
11:20 AM 36.0°F2.2°C 33.4°F0.8°C 90% 1.0 mph SE1.6 kmh SE 4.0 mph6.4 kmh 29.70 in1005.8 mb 0.02 in0.5 mm 0.00 in0.0 mm 0.08 in2.0 mm
11:25 AM 36.4°F2.4°C 33.5°F0.8°C 89% Calm Calm 4.0 mph6.4 kmh 29.70 in1005.8 mb 0.02 in0.5 mm 0.00 in0.0 mm 0.08 in2.0 mm
11:30 AM 37.1°F2.8°C 34.2°F1.2°C 89% 1.0 mph SE1.6 kmh SE 4.0 mph6.4 kmh 29.70 in1005.8 mb 0.02 in0.5 mm 0.00 in0.0 mm 0.08 in2.0 mm
11:35 AM 37.3°F2.9°C 33.5°F0.8°C 86% 2.0 mph SE3.2 kmh SE 2.0 mph3.2 kmh 29.70 in1005.8 mb 0.01 in0.3 mm 0.00 in0.0 mm 0.08 in2.0 mm
11:40 AM 35.1°F1.7°C 31.3°F-0.4°C 86% 2.0 mph E3.2 kmh E 3.0 mph4.8 kmh 29.70 in1005.8 mb 0.01 in0.3 mm 0.00 in0.0 mm 0.08 in2.0 mm
11:45 AM 34.2°F1.2°C 31.0°F-0.6°C 88% 2.0 mph E3.2 kmh E 3.0 mph4.8 kmh 29.70 in1005.8 mb 0.01 in0.3 mm 0.00 in0.0 mm 0.08 in2.0 mm
11:50 AM 33.9°F1.1°C 31.0°F-0.6°C 89% 1.0 mph E1.6 kmh E 3.0 mph4.8 kmh 29.70 in1005.8 mb 0.00 in0.0 mm 0.00 in0.0 mm 0.08 in2.0 mm
11:55 AM 33.8°F1.0°C 30.9°F-0.6°C 89% 1.0 mph E1.6 kmh E 3.0 mph4.8 kmh 29.70 in1005.8 mb 0.00 in0.0 mm 0.00 in0.0 mm 0.08 in2.0 mm
12:00 PM 33.8°F1.0°C 31.2°F-0.4°C 90% Calm Calm 3.0 mph4.8 kmh 29.70 in1005.8 mb 0.00 in0.0 mm 0.00 in0.0 mm 0.08 in2.0 mm
12:05 PM 34.2°F1.2°C 31.6°F-0.2°C 90% Calm Calm -- 29.70 in1005.8 mb 0.00 in0.0 mm 0.00 in0.0 mm 0.08 in2.0 mm
12:10 PM 34.7°F1.5°C 31.8°F-0.1°C 89% Calm Calm -- 29.70 in1005.8 mb 0.00 in0.0 mm 0.00 in0.0 mm 0.08 in2.0 mm
12:15 PM 34.7°F1.5°C 31.5°F-0.3°C 88% Calm Calm 3.0 mph4.8 kmh 29.70 in1005.8 mb 0.00 in0.0 mm 0.00 in0.0 mm 0.08 in2.0 mm
12:20 PM 34.7°F1.5°C 31.5°F-0.3°C 88% Calm Calm 2.0 mph3.2 kmh 29.70 in1005.8 mb 0.00 in0.0 mm 0.00 in0.0 mm 0.08 in2.0 mm
12:25 PM 34.8°F1.6°C 31.3°F-0.4°C 87% Calm Calm 2.0 mph3.2 kmh 29.70 in1005.8 mb 0.00 in0.0 mm 0.00 in0.0 mm 0.08 in2.0 mm
12:30 PM 35.0°F1.7°C 31.2°F-0.4°C 86% 1.0 mph NE1.6 kmh NE 2.0 mph3.2 kmh 29.70 in1005.8 mb 0.00 in0.0 mm 0.00 in0.0 mm 0.08 in2.0 mm
12:35 PM 35.2°F1.8°C 31.4°F-0.3°C 86% 2.0 mph NNE3.2 kmh NNE 5.0 mph8.0 kmh 29.70 in1005.8 mb 0.00 in0.0 mm 0.00 in0.0 mm 0.08 in2.0 mm
12:40 PM 35.0°F1.7°C 31.5°F-0.3°C 87% 2.0 mph N3.2 kmh N 5.0 mph8.0 kmh 29.70 in1005.8 mb 0.00 in0.0 mm 0.00 in0.0 mm 0.08 in2.0 mm
12:45 PM 35.2°F1.8°C 31.7°F-0.2°C 87% 4.0 mph N6.4 kmh N 5.0 mph8.0 kmh 29.70 in1005.8 mb 0.00 in0.0 mm 0.00 in0.0 mm 0.08 in2.0 mm
12:50 PM 35.4°F1.9°C 31.6°F-0.2°C 86% 4.0 mph NW6.4 kmh NW 6.0 mph9.7 kmh 29.69 in1005.4 mb 0.00 in0.0 mm 0.00 in0.0 mm 0.08 in2.0 mm
12:55 PM 35.3°F1.8°C 31.5°F-0.3°C 86% 4.0 mph NNW6.4 kmh NNW 6.0 mph9.7 kmh 29.69 in1005.4 mb 0.00 in0.0 mm 0.00 in0.0 mm 0.08 in2.0 mm
01:00 PM 35.0°F1.7°C 31.2°F-0.4°C 86% 2.0 mph NNW3.2 kmh NNW 7.0 mph11.3 kmh 29.70 in1005.8 mb 0.00 in0.0 mm 0.00 in0.0 mm 0.08 in2.0 mm
01:05 PM 34.7°F1.5°C 31.0°F-0.6°C 86% 3.0 mph NNW4.8 kmh NNW 7.0 mph11.3 kmh 29.69 in1005.4 mb 0.00 in0.0 mm 0.00 in0.0 mm 0.08 in2.0 mm
01:10 PM 34.7°F1.5°C 31.0°F-0.6°C 86% 3.0 mph NNW4.8 kmh NNW 7.0 mph11.3 kmh 29.69 in1005.4 mb 0.00 in0.0 mm 0.00 in0.0 mm 0.08 in2.0 mm
01:15 PM 34.7°F1.5°C 31.0°F-0.6°C 86% 5.0 mph NNW8.0 kmh NNW 7.0 mph11.3 kmh 29.69 in1005.4 mb 0.00 in0.0 mm 0.00 in0.0 mm 0.08 in2.0 mm
01:20 PM 34.5°F1.4°C 30.8°F-0.7°C 86% 3.0 mph N4.8 kmh N 7.0 mph11.3 kmh 29.69 in1005.4 mb 0.00 in0.0 mm 0.00 in0.0 mm 0.08 in2.0 mm
01:25 PM 34.8°F1.6°C 31.3°F-0.4°C 87% 5.0 mph N8.0 kmh N 7.0 mph11.3 kmh 29.69 in1005.4 mb 0.00 in0.0 mm 0.00 in0.0 mm 0.08 in2.0 mm
01:30 PM 34.7°F1.5°C 31.0°F-0.6°C 86% 5.0 mph NW8.0 kmh NW 7.0 mph11.3 kmh 29.69 in1005.4 mb 0.00 in0.0 mm 0.00 in0.0 mm 0.08 in2.0 mm
01:35 PM 34.8°F1.6°C 31.1°F-0.5°C 86% 3.0 mph NNW4.8 kmh NNW 7.0 mph11.3 kmh 29.68 in1005.1 mb 0.00 in0.0 mm 0.00 in0.0 mm 0.08 in2.0 mm
01:40 PM 34.9°F1.6°C 31.2°F-0.4°C 86% 9.0 mph N14.5 kmh N 9.0 mph14.5 kmh 29.68 in1005.1 mb 0.00 in0.0 mm 0.00 in0.0 mm 0.08 in2.0 mm
01:45 PM 34.8°F1.6°C 31.1°F-0.5°C 86% 4.0 mph N6.4 kmh N 10.0 mph16.1 kmh 29.68 in1005.1 mb 0.00 in0.0 mm 0.00 in0.0 mm 0.08 in2.0 mm
01:50 PM 35.3°F1.8°C 31.5°F-0.3°C 86% 5.0 mph N8.0 kmh N 8.0 mph12.9 kmh 29.68 in1005.1 mb 0.00 in0.0 mm 0.00 in0.0 mm 0.08 in2.0 mm
01:55 PM 35.8°F2.1°C 31.5°F-0.3°C 84% 5.0 mph N8.0 kmh N 8.0 mph12.9 kmh 29.68 in1005.1 mb 0.00 in0.0 mm 0.00 in0.0 mm 0.08 in2.0 mm
02:00 PM 35.8°F2.1°C 31.2°F-0.4°C 83% 3.0 mph N4.8 kmh N 8.0 mph12.9 kmh 29.68 in1005.1 mb 0.00 in0.0 mm 0.00 in0.0 mm 0.08 in2.0 mm
02:05 PM 35.8°F2.1°C 31.2°F-0.4°C 83% 3.0 mph NNW4.8 kmh NNW 4.0 mph6.4 kmh 29.68 in1005.1 mb 0.00 in0.0 mm 0.00 in0.0 mm 0.08 in2.0 mm
02:10 PM 35.8°F2.1°C 31.2°F-0.4°C 83% Calm Calm 4.0 mph6.4 kmh 29.67 in1004.7 mb 0.00 in0.0 mm 0.00 in0.0 mm 0.08 in2.0 mm
02:15 PM 35.5°F1.9°C 30.3°F-0.9°C 81% Calm Calm 4.0 mph6.4 kmh 29.67 in1004.7 mb 0.00 in0.0 mm 0.00 in0.0 mm 0.08 in2.0 mm
02:20 PM 35.0°F1.7°C 30.1°F-1.1°C 82% Calm Calm -- 29.67 in1004.7 mb 0.00 in0.0 mm 0.00 in0.0 mm 0.08 in2.0 mm
02:25 PM 35.3°F1.8°C 30.4°F-0.9°C 82% Calm Calm 2.0 mph3.2 kmh 29.67 in1004.7 mb 0.00 in0.0 mm 0.00 in0.0 mm 0.08 in2.0 mm
02:30 PM 36.2°F2.3°C 31.2°F-0.4°C 82% Calm Calm 2.0 mph3.2 kmh 29.67 in1004.7 mb 0.00 in0.0 mm 0.00 in0.0 mm 0.08 in2.0 mm
02:35 PM 35.9°F2.2°C 30.7°F-0.7°C 81% 2.0 mph N3.2 kmh N 4.0 mph6.4 kmh 29.66 in1004.4 mb 0.00 in0.0 mm 0.00 in0.0 mm 0.08 in2.0 mm
02:40 PM 35.7°F2.1°C 30.8°F-0.7°C 82% 2.0 mph N3.2 kmh N 4.0 mph6.4 kmh 29.66 in1004.4 mb 0.00 in0.0 mm 0.00 in0.0 mm 0.08 in2.0 mm
02:45 PM 35.4°F1.9°C 30.8°F-0.7°C 83% 2.0 mph NE3.2 kmh NE 4.0 mph6.4 kmh 29.66 in1004.4 mb 0.00 in0.0 mm 0.00 in0.0 mm 0.08 in2.0 mm
02:50 PM 35.1°F1.7°C 30.8°F-0.7°C 84% 1.0 mph NE1.6 kmh NE 3.0 mph4.8 kmh 29.66 in1004.4 mb 0.00 in0.0 mm 0.00 in0.0 mm 0.08 in2.0 mm
02:55 PM 35.5°F1.9°C 30.9°F-0.6°C 83% 4.0 mph NNW6.4 kmh NNW 4.0 mph6.4 kmh 29.66 in1004.4 mb 0.00 in0.0 mm 0.00 in0.0 mm 0.08 in2.0 mm
03:00 PM 36.1°F2.3°C 30.8°F-0.7°C 81% Calm Calm 4.0 mph6.4 kmh 29.66 in1004.4 mb 0.00 in0.0 mm 0.00 in0.0 mm 0.08 in2.0 mm
03:05 PM 36.4°F2.4°C 31.1°F-0.5°C 81% 5.0 mph N8.0 kmh N 5.0 mph8.0 kmh 29.66 in1004.4 mb 0.00 in0.0 mm 0.00 in0.0 mm 0.08 in2.0 mm
03:10 PM 36.4°F2.4°C 31.4°F-0.3°C 82% 2.0 mph N3.2 kmh N 5.0 mph8.0 kmh 29.66 in1004.4 mb 0.00 in0.0 mm 0.00 in0.0 mm 0.08 in2.0 mm
03:15 PM 35.9°F2.2°C 30.7°F-0.7°C 81% Calm Calm 5.0 mph8.0 kmh 29.66 in1004.4 mb 0.00 in0.0 mm 0.00 in0.0 mm 0.08 in2.0 mm
03:20 PM 36.0°F2.2°C 31.1°F-0.5°C 82% 2.0 mph N3.2 kmh N 3.0 mph4.8 kmh 29.66 in1004.4 mb 0.00 in0.0 mm 0.00 in0.0 mm 0.08 in2.0 mm
03:25 PM 36.0°F2.2°C 31.1°F-0.5°C 82% Calm Calm 4.0 mph6.4 kmh 29.66 in1004.4 mb 0.00 in0.0 mm 0.00 in0.0 mm 0.08 in2.0 mm
03:30 PM 35.9°F2.2°C 31.0°F-0.6°C 82% Calm Calm 5.0 mph8.0 kmh 29.66 in1004.4 mb 0.00 in0.0 mm 0.00 in0.0 mm 0.08 in2.0 mm
03:35 PM 35.9°F2.2°C 31.0°F-0.6°C 82% Calm Calm 2.0 mph3.2 kmh 29.66 in1004.4 mb 0.00 in0.0 mm 0.00 in0.0 mm 0.08 in2.0 mm
03:40 PM 35.9°F2.2°C 31.0°F-0.6°C 82% Calm Calm 4.0 mph6.4 kmh 29.66 in1004.4 mb 0.00 in0.0 mm 0.00 in0.0 mm 0.08 in2.0 mm
03:45 PM 35.9°F2.2°C 31.0°F-0.6°C 82% 2.0 mph NNE3.2 kmh NNE 6.0 mph9.7 kmh 29.66 in1004.4 mb 0.00 in0.0 mm 0.00 in0.0 mm 0.08 in2.0 mm
03:50 PM 35.9°F2.2°C 31.0°F-0.6°C 82% 1.0 mph NNE1.6 kmh NNE 3.0 mph4.8 kmh 29.66 in1004.4 mb 0.00 in0.0 mm 0.00 in0.0 mm 0.08 in2.0 mm
03:55 PM 35.9°F2.2°C 30.7°F-0.7°C 81% 3.0 mph NNE4.8 kmh NNE 4.0 mph6.4 kmh 29.66 in1004.4 mb 0.00 in0.0 mm 0.00 in0.0 mm 0.08 in2.0 mm
04:00 PM 35.6°F2.0°C 30.4°F-0.9°C 81% 2.0 mph N3.2 kmh N 4.0 mph6.4 kmh 29.66 in1004.4 mb 0.00 in0.0 mm 0.00 in0.0 mm 0.08 in2.0 mm
04:05 PM 35.6°F2.0°C 30.7°F-0.7°C 82% Calm Calm 3.0 mph4.8 kmh 29.66 in1004.4 mb 0.00 in0.0 mm 0.00 in0.0 mm 0.08 in2.0 mm
04:10 PM 35.7°F2.1°C 30.5°F-0.8°C 81% 1.0 mph NE1.6 kmh NE 3.0 mph4.8 kmh 29.66 in1004.4 mb 0.00 in0.0 mm 0.00 in0.0 mm 0.08 in2.0 mm
04:15 PM 35.9°F2.2°C 30.7°F-0.7°C 81% 2.0 mph N3.2 kmh N 4.0 mph6.4 kmh 29.66 in1004.4 mb 0.00 in0.0 mm 0.00 in0.0 mm 0.08 in2.0 mm
04:20 PM 35.7°F2.1°C 30.2°F-1.0°C 80% Calm Calm 3.0 mph4.8 kmh 29.66 in1004.4 mb 0.00 in0.0 mm 0.00 in0.0 mm 0.08 in2.0 mm
04:25 PM 35.6°F2.0°C 29.7°F-1.3°C 79% Calm Calm 3.0 mph4.8 kmh 29.66 in1004.4 mb 0.00 in0.0 mm 0.00 in0.0 mm 0.08 in2.0 mm
04:30 PM 35.6°F2.0°C 30.1°F-1.1°C 80% Calm Calm 3.0 mph4.8 kmh 29.66 in1004.4 mb 0.00 in0.0 mm 0.00 in0.0 mm 0.08 in2.0 mm
04:35 PM 35.7°F2.1°C 29.8°F-1.2°C 79% Calm Calm 2.0 mph3.2 kmh 29.66 in1004.4 mb 0.00 in0.0 mm 0.00 in0.0 mm 0.08 in2.0 mm
04:40 PM 35.9°F2.2°C 30.0°F-1.1°C 79% Calm Calm 2.0 mph3.2 kmh 29.66 in1004.4 mb 0.00 in0.0 mm 0.00 in0.0 mm 0.08 in2.0 mm
04:45 PM 35.9°F2.2°C 30.0°F-1.1°C 79% Calm Calm 2.0 mph3.2 kmh 29.66 in1004.4 mb 0.00 in0.0 mm 0.00 in0.0 mm 0.08 in2.0 mm
04:50 PM 35.8°F2.1°C 29.9°F-1.2°C 79% Calm Calm -- 29.66 in1004.4 mb 0.00 in0.0 mm 0.00 in0.0 mm 0.08 in2.0 mm
04:55 PM 35.7°F2.1°C 29.5°F-1.4°C 78% Calm Calm -- 29.66 in1004.4 mb 0.00 in0.0 mm 0.00 in0.0 mm 0.08 in2.0 mm
05:00 PM 35.1°F1.7°C 29.3°F-1.5°C 79% Calm Calm -- 29.66 in1004.4 mb 0.00 in0.0 mm 0.00 in0.0 mm 0.08 in2.0 mm
05:05 PM 34.5°F1.4°C 29.3°F-1.5°C 81% Calm Calm -- 29.66 in1004.4 mb 0.00 in0.0 mm 0.00 in0.0 mm 0.08 in2.0 mm
05:10 PM 34.3°F1.3°C 29.4°F-1.4°C 82% Calm Calm -- 29.65 in1004.1 mb 0.00 in0.0 mm 0.00 in0.0 mm 0.08 in2.0 mm
05:15 PM 34.0°F1.1°C 29.4°F-1.4°C 83% Calm Calm -- 29.66 in1004.4 mb 0.00 in0.0 mm 0.00 in0.0 mm 0.08 in2.0 mm
05:20 PM 33.5°F0.8°C 28.9°F-1.7°C 83% Calm Calm -- 29.66 in1004.4 mb 0.00 in0.0 mm 0.00 in0.0 mm 0.08 in2.0 mm
05:25 PM 33.3°F0.7°C 29.0°F-1.7°C 84% Calm Calm -- 29.66 in1004.4 mb 0.00 in0.0 mm 0.00 in0.0 mm 0.08 in2.0 mm
05:30 PM 33.1°F0.6°C 29.1°F-1.6°C 85% Calm Calm -- 29.66 in1004.4 mb 0.00 in0.0 mm 0.00 in0.0 mm 0.08 in2.0 mm
05:35 PM 32.9°F0.5°C 29.2°F-1.6°C 86% Calm Calm -- 29.66 in1004.4 mb 0.00 in0.0 mm 0.00 in0.0 mm 0.08 in2.0 mm
05:40 PM 32.7°F0.4°C 29.0°F-1.7°C 86% Calm Calm -- 29.66 in1004.4 mb 0.00 in0.0 mm 0.00 in0.0 mm 0.08 in2.0 mm
05:45 PM 32.4°F0.2°C 28.7°F-1.8°C 86% Calm Calm -- 29.66 in1004.4 mb 0.00 in0.0 mm 0.00 in0.0 mm 0.08 in2.0 mm
05:50 PM 32.2°F0.1°C 28.8°F-1.8°C 87% Calm Calm -- 29.66 in1004.4 mb 0.00 in0.0 mm 0.00 in0.0 mm 0.08 in2.0 mm
05:55 PM 32.1°F0.1°C 28.7°F-1.8°C 87% Calm Calm -- 29.66 in1004.4 mb 0.00 in0.0 mm 0.00 in0.0 mm 0.08 in2.0 mm
06:05 PM 31.6°F-0.2°C 28.5°F-1.9°C 88% Calm Calm -- 29.66 in1004.4 mb 0.00 in0.0 mm 0.00 in0.0 mm 0.08 in2.0 mm
06:10 PM 31.4°F-0.3°C 28.5°F-1.9°C 89% Calm Calm -- 29.66 in1004.4 mb 0.00 in0.0 mm 0.00 in0.0 mm 0.08 in2.0 mm
06:15 PM 31.1°F-0.5°C 28.2°F-2.1°C 89% Calm Calm -- 29.67 in1004.7 mb 0.00 in0.0 mm 0.00 in0.0 mm 0.08 in2.0 mm
06:20 PM 30.9°F-0.6°C 28.3°F-2.1°C 90% Calm Calm -- 29.67 in1004.7 mb 0.00 in0.0 mm 0.00 in0.0 mm 0.08 in2.0 mm
06:25 PM 30.7°F-0.7°C 28.1°F-2.2°C 90% Calm Calm -- 29.67 in1004.7 mb 0.00 in0.0 mm 0.00 in0.0 mm 0.08 in2.0 mm
06:30 PM 30.5°F-0.8°C 27.9°F-2.3°C 90% Calm Calm -- 29.67 in1004.7 mb 0.00 in0.0 mm 0.00 in0.0 mm 0.08 in2.0 mm
06:35 PM 30.3°F-0.9°C 28.0°F-2.2°C 91% Calm Calm -- 29.67 in1004.7 mb 0.00 in0.0 mm 0.00 in0.0 mm 0.08 in2.0 mm
06:40 PM 30.4°F-0.9°C 28.1°F-2.2°C 91% Calm Calm -- 29.67 in1004.7 mb 0.00 in0.0 mm 0.00 in0.0 mm 0.08 in2.0 mm
06:45 PM 30.4°F-0.9°C 28.1°F-2.2°C 91% Calm Calm -- 29.67 in1004.7 mb 0.00 in0.0 mm 0.00 in0.0 mm 0.08 in2.0 mm
06:50 PM 29.8°F-1.2°C 27.5°F-2.5°C 91% Calm Calm -- 29.67 in1004.7 mb 0.00 in0.0 mm 0.00 in0.0 mm 0.08 in2.0 mm
06:55 PM 29.7°F-1.3°C 27.4°F-2.6°C 91% Calm Calm -- 29.67 in1004.7 mb 0.00 in0.0 mm 0.00 in0.0 mm 0.08 in2.0 mm
07:00 PM 29.8°F-1.2°C 27.8°F-2.3°C 92% Calm Calm -- 29.67 in1004.7 mb 0.00 in0.0 mm 0.00 in0.0 mm 0.08 in2.0 mm
07:05 PM 29.8°F-1.2°C 27.5°F-2.5°C 91% Calm Calm -- 29.67 in1004.7 mb 0.00 in0.0 mm 0.00 in0.0 mm 0.08 in2.0 mm
07:10 PM 29.2°F-1.6°C 26.9°F-2.8°C 91% Calm Calm -- 29.67 in1004.7 mb 0.00 in0.0 mm 0.00 in0.0 mm 0.08 in2.0 mm
07:15 PM 29.7°F-1.3°C 27.7°F-2.4°C 92% Calm Calm -- 29.68 in1005.1 mb 0.00 in0.0 mm 0.00 in0.0 mm 0.08 in2.0 mm
07:20 PM 29.7°F-1.3°C 27.7°F-2.4°C 92% Calm Calm -- 29.68 in1005.1 mb 0.00 in0.0 mm 0.00 in0.0 mm 0.08 in2.0 mm
07:25 PM 29.6°F-1.3°C 27.6°F-2.4°C 92% Calm Calm -- 29.68 in1005.1 mb 0.00 in0.0 mm 0.00 in0.0 mm 0.08 in2.0 mm
07:30 PM 28.5°F-1.9°C 26.2°F-3.2°C 91% Calm Calm -- 29.68 in1005.1 mb 0.00 in0.0 mm 0.00 in0.0 mm 0.08 in2.0 mm
07:35 PM 27.6°F-2.4°C 25.3°F-3.7°C 91% Calm Calm -- 29.68 in1005.1 mb 0.00 in0.0 mm 0.00 in0.0 mm 0.08 in2.0 mm
07:40 PM 27.1°F-2.7°C 25.1°F-3.8°C 92% Calm Calm -- 29.68 in1005.1 mb 0.00 in0.0 mm 0.00 in0.0 mm 0.08 in2.0 mm
07:45 PM 27.3°F-2.6°C 25.3°F-3.7°C 92% Calm Calm -- 29.68 in1005.1 mb 0.00 in0.0 mm 0.00 in0.0 mm 0.08 in2.0 mm
07:50 PM 27.4°F-2.6°C 25.4°F-3.7°C 92% Calm Calm -- 29.68 in1005.1 mb 0.00 in0.0 mm 0.00 in0.0 mm 0.08 in2.0 mm
07:55 PM 27.5°F-2.5°C 25.8°F-3.4°C 93% Calm Calm -- 29.68 in1005.1 mb 0.00 in0.0 mm 0.00 in0.0 mm 0.08 in2.0 mm
08:00 PM 27.2°F-2.7°C 25.2°F-3.8°C 92% Calm Calm -- 29.68 in1005.1 mb 0.00 in0.0 mm 0.00 in0.0 mm 0.08 in2.0 mm
08:05 PM 26.7°F-2.9°C 24.7°F-4.1°C 92% Calm Calm -- 29.68 in1005.1 mb 0.00 in0.0 mm 0.00 in0.0 mm 0.08 in2.0 mm
08:10 PM 26.6°F-3.0°C 24.9°F-3.9°C 93% Calm Calm -- 29.68 in1005.1 mb 0.00 in0.0 mm 0.00 in0.0 mm 0.08 in2.0 mm
08:15 PM 26.7°F-2.9°C 25.0°F-3.9°C 93% Calm Calm -- 29.68 in1005.1 mb 0.00 in0.0 mm 0.00 in0.0 mm 0.08 in2.0 mm
08:20 PM 26.5°F-3.1°C 24.8°F-4.0°C 93% Calm Calm -- 29.68 in1005.1 mb 0.00 in0.0 mm 0.00 in0.0 mm 0.08 in2.0 mm
08:25 PM 26.3°F-3.2°C 24.6°F-4.1°C 93% Calm Calm -- 29.68 in1005.1 mb 0.00 in0.0 mm 0.00 in0.0 mm 0.08 in2.0 mm
08:30 PM 26.1°F-3.3°C 24.4°F-4.2°C 93% Calm Calm -- 29.68 in1005.1 mb 0.00 in0.0 mm 0.00 in0.0 mm 0.08 in2.0 mm
08:35 PM 26.5°F-3.1°C 24.8°F-4.0°C 93% Calm Calm -- 29.68 in1005.1 mb 0.00 in0.0 mm 0.00 in0.0 mm 0.08 in2.0 mm
08:40 PM 27.0°F-2.8°C 25.3°F-3.7°C 93% Calm Calm -- 29.68 in1005.1 mb 0.00 in0.0 mm 0.00 in0.0 mm 0.08 in2.0 mm
08:45 PM 26.4°F-3.1°C 24.7°F-4.1°C 93% Calm Calm -- 29.69 in1005.4 mb 0.00 in0.0 mm 0.00 in0.0 mm 0.08 in2.0 mm
08:50 PM 26.8°F-2.9°C 25.1°F-3.8°C 93% Calm Calm -- 29.69 in1005.4 mb 0.00 in0.0 mm 0.00 in0.0 mm 0.08 in2.0 mm
08:55 PM 27.1°F-2.7°C 25.6°F-3.6°C 94% Calm Calm 1.0 mph1.6 kmh 29.69 in1005.4 mb 0.00 in0.0 mm 0.00 in0.0 mm 0.08 in2.0 mm
09:00 PM 27.1°F-2.7°C 25.6°F-3.6°C 94% Calm Calm 1.0 mph1.6 kmh 29.69 in1005.4 mb 0.00 in0.0 mm 0.00 in0.0 mm 0.08 in2.0 mm
09:05 PM 27.1°F-2.7°C 25.6°F-3.6°C 94% Calm Calm -- 29.69 in1005.4 mb 0.00 in0.0 mm 0.00 in0.0 mm 0.08 in2.0 mm
09:10 PM 27.1°F-2.7°C 25.6°F-3.6°C 94% Calm Calm -- 29.69 in1005.4 mb 0.00 in0.0 mm 0.00 in0.0 mm 0.08 in2.0 mm
09:15 PM 27.1°F-2.7°C 25.6°F-3.6°C 94% Calm Calm -- 29.69 in1005.4 mb 0.00 in0.0 mm 0.00 in0.0 mm 0.08 in2.0 mm
09:20 PM 27.2°F-2.7°C 25.5°F-3.6°C 93% Calm Calm -- 29.69 in1005.4 mb 0.00 in0.0 mm 0.00 in0.0 mm 0.08 in2.0 mm
09:25 PM 26.9°F-2.8°C 25.2°F-3.8°C 93% Calm Calm -- 29.70 in1005.8 mb 0.00 in0.0 mm 0.00 in0.0 mm 0.08 in2.0 mm
09:30 PM 26.8°F-2.9°C 25.1°F-3.8°C 93% Calm Calm -- 29.70 in1005.8 mb 0.00 in0.0 mm 0.00 in0.0 mm 0.08 in2.0 mm
09:35 PM 26.7°F-2.9°C 25.0°F-3.9°C 93% Calm Calm -- 29.70 in1005.8 mb 0.00 in0.0 mm 0.00 in0.0 mm 0.08 in2.0 mm
09:40 PM 26.5°F-3.1°C 24.8°F-4.0°C 93% Calm Calm -- 29.70 in1005.8 mb 0.00 in0.0 mm 0.00 in0.0 mm 0.08 in2.0 mm
09:45 PM 25.9°F-3.4°C 24.2°F-4.3°C 93% Calm Calm -- 29.70 in1005.8 mb 0.00 in0.0 mm 0.00 in0.0 mm 0.08 in2.0 mm
09:50 PM 25.8°F-3.4°C 24.1°F-4.4°C 93% Calm Calm -- 29.71 in1006.1 mb 0.00 in0.0 mm 0.00 in0.0 mm 0.08 in2.0 mm
09:55 PM 26.0°F-3.3°C 24.3°F-4.3°C 93% 1.0 mph SE1.6 kmh SE 5.0 mph8.0 kmh 29.71 in1006.1 mb 0.00 in0.0 mm 0.00 in0.0 mm 0.08 in2.0 mm
10:00 PM 25.9°F-3.4°C 24.2°F-4.3°C 93% Calm Calm 5.0 mph8.0 kmh 29.71 in1006.1 mb 0.00 in0.0 mm 0.00 in0.0 mm 0.08 in2.0 mm
10:05 PM 25.7°F-3.5°C 24.0°F-4.4°C 93% Calm Calm -- 29.71 in1006.1 mb 0.00 in0.0 mm 0.00 in0.0 mm 0.08 in2.0 mm
10:10 PM 25.5°F-3.6°C 23.8°F-4.6°C 93% Calm Calm -- 29.71 in1006.1 mb 0.00 in0.0 mm 0.00 in0.0 mm 0.08 in2.0 mm
10:15 PM 25.7°F-3.5°C 24.0°F-4.4°C 93% Calm Calm -- 29.71 in1006.1 mb 0.00 in0.0 mm 0.00 in0.0 mm 0.08 in2.0 mm
10:20 PM 25.7°F-3.5°C 24.0°F-4.4°C 93% 3.0 mph SE4.8 kmh SE 4.0 mph6.4 kmh 29.72 in1006.4 mb 0.00 in0.0 mm 0.00 in0.0 mm 0.08 in2.0 mm
10:25 PM 25.9°F-3.4°C 24.2°F-4.3°C 93% 1.0 mph SE1.6 kmh SE 4.0 mph6.4 kmh 29.72 in1006.4 mb 0.00 in0.0 mm 0.00 in0.0 mm 0.08 in2.0 mm
10:30 PM 26.0°F-3.3°C 24.3°F-4.3°C 93% 1.0 mph SE1.6 kmh SE 4.0 mph6.4 kmh 29.72 in1006.4 mb 0.00 in0.0 mm 0.00 in0.0 mm 0.08 in2.0 mm
10:35 PM 26.0°F-3.3°C 24.3°F-4.3°C 93% Calm Calm 3.0 mph4.8 kmh 29.72 in1006.4 mb 0.00 in0.0 mm 0.00 in0.0 mm 0.08 in2.0 mm
10:40 PM 25.9°F-3.4°C 24.2°F-4.3°C 93% Calm Calm 3.0 mph4.8 kmh 29.72 in1006.4 mb 0.00 in0.0 mm 0.00 in0.0 mm 0.08 in2.0 mm
10:45 PM 25.5°F-3.6°C 23.8°F-4.6°C 93% 2.0 mph SE3.2 kmh SE 3.0 mph4.8 kmh 29.72 in1006.4 mb 0.00 in0.0 mm 0.00 in0.0 mm 0.08 in2.0 mm
10:50 PM 25.3°F-3.7°C 23.6°F-4.7°C 93% 2.0 mph SE3.2 kmh SE 2.0 mph3.2 kmh 29.72 in1006.4 mb 0.00 in0.0 mm 0.00 in0.0 mm 0.08 in2.0 mm
10:55 PM 25.1°F-3.8°C 23.1°F-4.9°C 92% 2.0 mph SE3.2 kmh SE 3.0 mph4.8 kmh 29.72 in1006.4 mb 0.00 in0.0 mm 0.00 in0.0 mm 0.08 in2.0 mm
11:00 PM 25.3°F-3.7°C 23.6°F-4.7°C 93% Calm Calm 4.0 mph6.4 kmh 29.73 in1006.8 mb 0.00 in0.0 mm 0.00 in0.0 mm 0.08 in2.0 mm
11:05 PM 25.5°F-3.6°C 23.8°F-4.6°C 93% Calm Calm 2.0 mph3.2 kmh 29.73 in1006.8 mb 0.00 in0.0 mm 0.00 in0.0 mm 0.08 in2.0 mm
11:10 PM 25.7°F-3.5°C 24.0°F-4.4°C 93% 4.0 mph SE6.4 kmh SE 4.0 mph6.4 kmh 29.73 in1006.8 mb 0.00 in0.0 mm 0.00 in0.0 mm 0.08 in2.0 mm
11:15 PM 25.8°F-3.4°C 23.8°F-4.6°C 92% 2.0 mph SE3.2 kmh SE 4.0 mph6.4 kmh 29.73 in1006.8 mb 0.00 in0.0 mm 0.00 in0.0 mm 0.08 in2.0 mm
11:20 PM 25.9°F-3.4°C 23.9°F-4.5°C 92% 2.0 mph SE3.2 kmh SE 4.0 mph6.4 kmh 29.73 in1006.8 mb 0.00 in0.0 mm 0.00 in0.0 mm 0.08 in2.0 mm
11:25 PM 26.1°F-3.3°C 24.4°F-4.2°C 93% 1.0 mph ESE1.6 kmh ESE 4.0 mph6.4 kmh 29.73 in1006.8 mb 0.00 in0.0 mm 0.00 in0.0 mm 0.08 in2.0 mm
11:30 PM 26.3°F-3.2°C 24.3°F-4.3°C 92% Calm Calm 4.0 mph6.4 kmh 29.73 in1006.8 mb 0.00 in0.0 mm 0.00 in0.0 mm 0.08 in2.0 mm
11:35 PM 26.6°F-3.0°C 24.6°F-4.1°C 92% Calm Calm 3.0 mph4.8 kmh 29.73 in1006.8 mb 0.00 in0.0 mm 0.00 in0.0 mm 0.08 in2.0 mm
11:40 PM 26.8°F-2.9°C 24.8°F-4.0°C 92% Calm Calm 3.0 mph4.8 kmh 29.73 in1006.8 mb 0.00 in0.0 mm 0.00 in0.0 mm 0.08 in2.0 mm
11:45 PM 26.9°F-2.8°C 24.9°F-3.9°C 92% Calm Calm 3.0 mph4.8 kmh 29.73 in1006.8 mb 0.00 in0.0 mm 0.00 in0.0 mm 0.08 in2.0 mm
11:50 PM 27.2°F-2.7°C 25.2°F-3.8°C 92% Calm Calm 3.0 mph4.8 kmh 29.73 in1006.8 mb 0.00 in0.0 mm 0.00 in0.0 mm 0.08 in2.0 mm
11:55 PM 27.3°F-2.6°C 25.3°F-3.7°C 92% Calm Calm 3.0 mph4.8 kmh 29.73 in1006.8 mb 0.00 in0.0 mm 0.00 in0.0 mm 0.08 in2.0 mm